Time;durP1;ratioP1;P1;durP2;ratioP2;P2;SDS_P1;SDS_P2;PMS_P1;PMS_P2;Temp;Humidity;BMP_temperature;BMP_pressure;BME280_temperature;BME280_humidity;BME280_pressure;Samples;Min_cycle;Max_cycle;Signal;HPM_P1;HPM_P2
2022/04/19 00:00:13;;;;;;;8.98;6.80;;;14.80;66.10;;;;;;5001225;28;20521;-87
2022/04/19 00:02:39;;;;;;;9.82;6.75;;;14.80;66.20;;;;;;5032860;28;20031;-86
2022/04/19 00:05:05;;;;;;;9.95;6.75;;;14.70;66.10;;;;;;5016333;28;20026;-87
2022/04/19 00:07:31;;;;;;;9.07;6.25;;;14.70;66.40;;;;;;5004529;28;20432;-86
2022/04/19 00:09:57;;;;;;;8.20;6.68;;;14.60;66.40;;;;;;5016709;28;20048;-86
2022/04/19 00:12:25;;;;;;;10.18;6.63;;;14.70;66.40;;;;;;5013641;28;20104;-86
2022/04/19 00:14:50;;;;;;;9.35;6.55;;;14.60;66.40;;;;;;5012492;28;20534;-87
2022/04/19 00:17:16;;;;;;;10.38;6.85;;;14.60;66.40;;;;;;5019762;28;20117;-87
2022/04/19 00:19:42;;;;;;;9.13;6.72;;;14.60;66.50;;;;;;5021401;28;20037;-86
2022/04/19 00:22:08;;;;;;;9.15;6.88;;;14.50;66.50;;;;;;5016220;28;20026;-87
2022/04/19 00:24:33;;;;;;;10.52;7.50;;;14.50;66.70;;;;;;4985036;28;20076;-88
2022/04/19 00:27:01;;;;;;;9.77;6.75;;;14.50;66.60;;;;;;5021275;28;20034;-88
2022/04/19 00:29:27;;;;;;;10.60;6.88;;;14.40;66.60;;;;;;5015828;28;20462;-88
2022/04/19 00:31:53;;;;;;;11.45;7.30;;;14.40;66.60;;;;;;5023148;28;20121;-88
2022/04/19 00:34:22;;;;;;;11.43;7.60;;;14.40;66.50;;;;;;5004062;28;20057;-87
2022/04/19 00:36:47;;;;;;;9.90;6.75;;;14.30;66.60;;;;;;4983743;28;20025;-88
2022/04/19 00:39:13;;;;;;;9.57;6.70;;;14.30;66.70;;;;;;5016227;28;20386;-87
2022/04/19 00:41:39;;;;;;;10.35;7.10;;;14.30;66.70;;;;;;5012845;28;20037;-88
2022/04/19 00:44:05;;;;;;;10.38;6.72;;;14.30;66.70;;;;;;5016459;28;20098;-88
2022/04/19 00:46:33;;;;;;;8.65;6.15;;;14.20;66.50;;;;;;5020456;28;20025;-86
2022/04/19 00:48:59;;;;;;;9.68;6.78;;;14.20;66.80;;;;;;5003197;28;20029;-87
2022/04/19 00:51:26;;;;;;;9.55;7.45;;;14.20;66.80;;;;;;5023886;28;20029;-88
2022/04/19 00:53:52;;;;;;;10.00;6.85;;;14.20;67.00;;;;;;5024145;28;20034;-88
2022/04/19 00:56:23;;;;;;;9.20;7.00;;;14.10;66.70;;;;;;5016352;28;20030;-86
2022/04/19 00:58:48;;;;;;;9.60;6.67;;;14.10;66.80;;;;;;5020259;28;20050;-87
2022/04/19 01:01:15;;;;;;;9.35;6.80;;;14.10;66.80;;;;;;5004277;28;20382;-87
2022/04/19 01:03:42;;;;;;;9.68;6.93;;;14.00;66.90;;;;;;5017184;28;20109;-86
2022/04/19 01:06:10;;;;;;;9.25;6.72;;;14.00;66.90;;;;;;5020847;28;20067;-87
2022/04/19 01:08:36;;;;;;;9.52;6.55;;;14.00;67.10;;;;;;4996649;28;20363;-87
2022/04/19 01:13:46;;;;;;;8.48;6.07;;;13.90;66.90;;;;;;5018693;28;20134;-88
2022/04/19 01:16:11;;;;;;;9.60;6.63;;;13.90;66.80;;;;;;4997829;28;22008;-88
2022/04/19 01:18:37;;;;;;;9.20;6.55;;;13.80;66.60;;;;;;5019424;28;20028;-88
2022/04/19 01:21:04;;;;;;;8.48;6.32;;;13.80;66.50;;;;;;5012201;28;20435;-87
2022/04/19 01:23:29;;;;;;;10.18;6.50;;;13.80;66.40;;;;;;5017686;28;20022;-87
2022/04/19 01:25:57;;;;;;;10.10;7.20;;;13.70;66.70;;;;;;5017016;28;20477;-86
2022/04/19 01:28:24;;;;;;;9.65;6.80;;;13.70;66.70;;;;;;5016061;28;20060;-86
2022/04/19 01:30:52;;;;;;;10.57;6.68;;;13.70;66.90;;;;;;5008791;28;20033;-87
2022/04/19 01:33:20;;;;;;;8.85;6.47;;;13.60;66.90;;;;;;5014431;28;20045;-88
2022/04/19 01:35:49;;;;;;;8.40;6.55;;;13.60;67.10;;;;;;5018395;28;20104;-87
2022/04/19 01:38:15;;;;;;;9.13;6.72;;;13.60;67.20;;;;;;5023465;28;20105;-88
2022/04/19 01:40:41;;;;;;;8.45;6.65;;;13.50;67.30;;;;;;5013309;28;20109;-86
2022/04/19 01:43:09;;;;;;;9.73;6.63;;;13.50;67.40;;;;;;5030888;28;20025;-87
2022/04/19 01:45:35;;;;;;;9.30;6.72;;;13.50;67.70;;;;;;4997218;28;20034;-87
2022/04/19 01:48:01;;;;;;;8.38;6.30;;;13.40;67.80;;;;;;5013082;28;20080;-88
2022/04/19 01:50:31;;;;;;;10.55;7.15;;;13.40;67.90;;;;;;5014897;28;20033;-88
2022/04/19 01:53:00;;;;;;;11.35;6.65;;;13.40;68.10;;;;;;5017580;28;20459;-88
2022/04/19 01:55:26;;;;;;;8.45;6.70;;;13.30;67.70;;;;;;5023800;28;20025;-88
2022/04/19 01:57:56;;;;;;;9.32;6.70;;;13.30;68.00;;;;;;5016544;28;20524;-88
2022/04/19 02:00:22;;;;;;;11.35;6.93;;;13.30;68.00;;;;;;5018237;28;20050;-88
2022/04/19 02:02:48;;;;;;;10.82;6.70;;;13.20;67.90;;;;;;5019903;28;20488;-87
2022/04/19 02:05:15;;;;;;;10.75;6.80;;;13.20;67.80;;;;;;5018514;28;20034;-87
2022/04/19 02:07:45;;;;;;;9.32;6.15;;;13.10;67.70;;;;;;5016125;28;20044;-88
2022/04/19 02:10:13;;;;;;;10.07;6.65;;;13.10;68.00;;;;;;5015451;28;20030;-87
2022/04/19 02:12:40;;;;;;;9.48;6.18;;;13.10;68.10;;;;;;5017778;28;20026;-87
2022/04/19 02:15:06;;;;;;;10.27;6.72;;;13.00;67.90;;;;;;5021530;28;20061;-87
2022/04/19 02:17:33;;;;;;;9.80;7.05;;;13.00;68.00;;;;;;5021672;28;20022;-87
2022/04/19 02:20:05;;;;;;;9.10;6.70;;;13.00;68.10;;;;;;5016351;28;20024;-87
2022/04/19 02:22:33;;;;;;;8.75;6.43;;;13.00;68.00;;;;;;5018211;28;20173;-88
2022/04/19 02:25:00;;;;;;;9.80;6.65;;;12.90;67.80;;;;;;5022391;28;20061;-87
2022/04/19 02:27:27;;;;;;;9.20;6.80;;;12.90;67.70;;;;;;5025237;28;20018;-87
2022/04/19 02:29:55;;;;;;;10.35;6.65;;;12.80;67.80;;;;;;5025028;28;20466;-87
2022/04/19 02:32:23;;;;;;;11.27;7.28;;;12.80;67.90;;;;;;5018463;28;20030;-87
2022/04/19 02:34:54;;;;;;;11.63;6.53;;;12.80;68.10;;;;;;5002479;28;20038;-87
2022/04/19 02:37:20;;;;;;;10.55;7.38;;;12.70;68.10;;;;;;5038466;28;20026;-87
2022/04/19 02:39:47;;;;;;;9.43;6.72;;;12.70;68.20;;;;;;5026645;28;20022;-87
2022/04/19 02:42:13;;;;;;;9.43;7.32;;;12.60;68.60;;;;;;5018244;28;20512;-87
2022/04/19 02:44:39;;;;;;;11.90;6.93;;;12.60;68.80;;;;;;5023003;28;20025;-88
2022/04/19 02:47:05;;;;;;;10.73;6.95;;;12.60;68.80;;;;;;5019894;28;20026;-87
2022/04/19 02:49:33;;;;;;;10.85;7.40;;;12.50;68.70;;;;;;5017954;28;20029;-87
2022/04/19 02:51:59;;;;;;;10.15;7.22;;;12.50;68.70;;;;;;5019552;28;20030;-88
2022/04/19 02:54:27;;;;;;;11.57;7.07;;;12.50;69.10;;;;;;5023596;28;20076;-88
2022/04/19 02:56:53;;;;;;;10.35;7.00;;;12.50;69.20;;;;;;5017663;28;20049;-87
2022/04/19 02:59:18;;;;;;;9.75;7.28;;;12.40;69.40;;;;;;5019229;28;20081;-87
2022/04/19 03:01:44;;;;;;;11.00;7.25;;;12.40;69.60;;;;;;5014613;28;20042;-88
2022/04/19 03:04:10;;;;;;;12.45;7.18;;;12.40;69.70;;;;;;5019671;28;20066;-86
2022/04/19 03:06:39;;;;;;;11.45;7.72;;;12.30;69.90;;;;;;4992674;28;20029;-87
2022/04/19 03:09:04;;;;;;;11.45;7.68;;;12.30;69.90;;;;;;5028315;28;20028;-86
2022/04/19 03:11:33;;;;;;;9.70;7.10;;;12.30;70.10;;;;;;5031134;28;20026;-87
2022/04/19 03:13:58;;;;;;;10.23;7.57;;;12.30;70.10;;;;;;5007315;28;20097;-88
2022/04/19 03:16:24;;;;;;;10.07;7.28;;;12.30;70.20;;;;;;5023726;28;20054;-88
2022/04/19 03:18:50;;;;;;;9.70;7.13;;;12.20;70.10;;;;;;5033143;28;20160;-88
2022/04/19 03:21:16;;;;;;;12.13;7.30;;;12.20;70.10;;;;;;5030142;28;20036;-87
2022/04/19 03:29:12;;;;;;;10.88;7.18;;;12.10;70.50;;;;;;5027124;28;20045;-89
2022/04/19 03:31:38;;;;;;;11.20;7.65;;;12.10;70.50;;;;;;5017592;28;20017;-88
2022/04/19 03:34:05;;;;;;;10.73;7.88;;;12.10;70.70;;;;;;5019809;28;20021;-88
2022/04/19 03:36:32;;;;;;;11.30;7.65;;;12.10;70.70;;;;;;5006826;28;20029;-88
2022/04/19 03:38:58;;;;;;;11.23;8.20;;;12.00;70.70;;;;;;5008335;28;20026;-88
2022/04/19 03:41:24;;;;;;;10.23;7.47;;;12.00;70.70;;;;;;5025409;28;20034;-88
2022/04/19 03:43:51;;;;;;;9.63;7.18;;;12.00;70.70;;;;;;5015130;28;20030;-87
2022/04/19 03:46:17;;;;;;;9.90;7.00;;;12.00;70.80;;;;;;5019647;28;20034;-87
2022/04/19 03:48:43;;;;;;;10.00;7.22;;;11.90;70.80;;;;;;5008554;28;20030;-87
2022/04/19 03:51:12;;;;;;;11.10;7.32;;;11.90;70.70;;;;;;5022137;28;20036;-87
2022/04/19 03:53:38;;;;;;;10.38;7.43;;;11.90;70.80;;;;;;5002483;28;20026;-89
2022/04/19 03:56:06;;;;;;;11.05;7.97;;;11.90;71.00;;;;;;5019027;28;20041;-88
2022/04/19 03:58:34;;;;;;;10.23;7.13;;;11.80;71.20;;;;;;5010665;28;20026;-88
2022/04/19 04:01:00;;;;;;;10.73;7.63;;;11.80;71.50;;;;;;5026802;28;20034;-87
2022/04/19 04:03:27;;;;;;;12.13;7.68;;;11.80;71.80;;;;;;5018761;28;20177;-88
2022/04/19 04:05:54;;;;;;;11.30;7.88;;;11.80;71.90;;;;;;5026014;28;20025;-88
2022/04/19 04:08:19;;;;;;;10.90;7.85;;;11.70;72.00;;;;;;5023139;28;20030;-87
2022/04/19 04:10:48;;;;;;;11.02;8.13;;;11.70;72.20;;;;;;5021264;28;20030;-88
2022/04/19 04:13:14;;;;;;;11.10;7.65;;;11.70;72.20;;;;;;5017832;28;20363;-85
2022/04/19 04:15:39;;;;;;;12.50;7.75;;;11.70;72.20;;;;;;5017510;28;20025;-86
2022/04/19 04:18:10;;;;;;;11.68;7.80;;;11.60;72.30;;;;;;5025154;28;20483;-86
2022/04/19 04:20:36;;;;;;;13.68;8.57;;;11.60;72.10;;;;;;5017183;28;20071;-88
2022/04/19 04:23:02;;;;;;;11.57;7.93;;;11.60;72.20;;;;;;5000897;28;20037;-87
2022/04/19 04:25:27;;;;;;;10.90;7.85;;;11.60;72.40;;;;;;5024195;28;20025;-88
2022/04/19 04:27:53;;;;;;;12.27;7.85;;;11.60;72.60;;;;;;4999474;28;20021;-87
2022/04/19 04:30:18;;;;;;;11.40;8.02;;;11.50;72.80;;;;;;4997554;28;20065;-87
2022/04/19 04:32:50;;;;;;;10.77;7.32;;;11.50;72.90;;;;;;4985720;28;20037;-87
2022/04/19 04:35:16;;;;;;;10.48;7.75;;;11.50;73.10;;;;;;5023727;28;20669;-88
2022/04/19 04:37:42;;;;;;;12.35;7.97;;;11.50;73.20;;;;;;5015919;28;20112;-87
2022/04/19 04:40:11;;;;;;;10.60;7.70;;;11.40;73.30;;;;;;5021925;28;20030;-88
2022/04/19 04:42:37;;;;;;;11.30;7.80;;;11.40;73.50;;;;;;5020071;28;20026;-87
2022/04/19 04:45:03;;;;;;;12.32;8.27;;;11.40;73.80;;;;;;4997407;28;20118;-88
2022/04/19 04:50:14;;;;;;;10.68;7.43;;;11.40;73.90;;;;;;5017882;28;20390;-87
2022/04/19 04:52:39;;;;;;;13.18;8.02;;;11.40;73.90;;;;;;5000498;28;20034;-87
2022/04/19 04:55:14;;;;;;;11.02;7.72;;;11.30;73.90;;;;;;5001535;28;20402;-88
2022/04/19 04:57:40;;;;;;;14.18;8.98;;;11.30;74.10;;;;;;4996554;28;20438;-88
2022/04/19 05:00:06;;;;;;;10.93;7.75;;;11.30;74.10;;;;;;5012151;28;20049;-87
2022/04/19 05:02:32;;;;;;;10.30;7.32;;;11.30;74.30;;;;;;4982493;28;20088;-87
2022/04/19 05:04:58;;;;;;;14.43;8.00;;;11.30;74.40;;;;;;4999827;28;20025;-90
2022/04/19 05:07:23;;;;;;;12.65;7.57;;;11.30;74.60;;;;;;4997219;28;20371;-89
2022/04/19 05:09:49;;;;;;;15.70;8.40;;;11.30;74.80;;;;;;5017057;28;20034;-88
2022/04/19 05:12:15;;;;;;;12.60;8.10;;;11.30;74.90;;;;;;5016407;28;20151;-88
2022/04/19 05:14:40;;;;;;;10.50;7.63;;;11.30;75.00;;;;;;4985730;28;20386;-88
2022/04/19 05:17:06;;;;;;;12.05;8.20;;;11.30;75.20;;;;;;4985208;28;20446;-88
2022/04/19 05:19:32;;;;;;;12.07;8.68;;;11.30;75.30;;;;;;5012388;28;20038;-88
2022/04/19 05:21:57;;;;;;;11.32;8.07;;;11.20;75.50;;;;;;5001704;28;20034;-87
2022/04/19 05:24:23;;;;;;;11.90;8.32;;;11.20;75.70;;;;;;5023820;28;20048;-87
2022/04/19 05:26:49;;;;;;;11.55;7.90;;;11.30;76.00;;;;;;5007355;28;20034;-88
2022/04/19 05:29:14;;;;;;;14.05;8.50;;;11.20;76.10;;;;;;5021062;28;20018;-88
2022/04/19 05:31:43;;;;;;;11.40;8.18;;;11.20;76.40;;;;;;5018164;28;20534;-87
2022/04/19 05:34:10;;;;;;;12.77;8.55;;;11.20;76.50;;;;;;5018093;28;20045;-88
2022/04/19 05:36:36;;;;;;;12.75;8.35;;;11.20;76.80;;;;;;5022931;28;20485;-88
2022/04/19 05:39:04;;;;;;;11.82;8.35;;;11.20;77.00;;;;;;5016911;28;20121;-87
2022/04/19 05:41:30;;;;;;;11.27;7.93;;;11.20;77.10;;;;;;5017877;28;20129;-88
2022/04/19 05:43:56;;;;;;;13.25;8.60;;;11.30;77.20;;;;;;5019541;28;20137;-88
2022/04/19 05:46:22;;;;;;;12.50;8.40;;;11.30;77.20;;;;;;5018233;28;20033;-88
2022/04/19 05:48:53;;;;;;;12.18;8.48;;;11.30;77.40;;;;;;4986641;28;20061;-88
2022/04/19 05:51:19;;;;;;;12.30;8.27;;;11.30;77.50;;;;;;5019622;28;20041;-88
2022/04/19 05:53:45;;;;;;;12.10;8.15;;;11.30;77.60;;;;;;5019655;28;20022;-88
2022/04/19 05:56:10;;;;;;;12.90;7.93;;;11.30;77.30;;;;;;5018003;28;20049;-88
2022/04/19 05:58:36;;;;;;;14.88;8.20;;;11.30;77.10;;;;;;5020628;28;20092;-87
2022/04/19 06:01:02;;;;;;;11.20;6.93;;;11.40;77.00;;;;;;5000937;28;20129;-87
2022/04/19 06:06:14;;;;;;;12.82;8.32;;;11.40;76.70;;;;;;5018555;28;20104;-88
2022/04/19 06:08:42;;;;;;;14.30;8.23;;;11.50;76.50;;;;;;5021498;28;20025;-87
2022/04/19 06:11:11;;;;;;;13.38;8.55;;;11.50;76.40;;;;;;5018162;28;20032;-88
2022/04/19 06:13:37;;;;;;;12.50;8.10;;;11.50;76.40;;;;;;5017404;28;20076;-88
2022/04/19 06:16:03;;;;;;;12.35;8.40;;;11.60;76.30;;;;;;5017135;28;20382;-88
2022/04/19 06:18:29;;;;;;;11.30;7.78;;;11.60;75.90;;;;;;5017038;28;20026;-86
2022/04/19 06:20:54;;;;;;;11.02;8.07;;;11.60;75.50;;;;;;5017643;28;20363;-87
2022/04/19 06:23:23;;;;;;;11.57;8.15;;;11.60;75.40;;;;;;5017513;28;20061;-88
2022/04/19 06:25:49;;;;;;;11.00;7.35;;;11.70;75.30;;;;;;5024038;28;20017;-88
2022/04/19 06:28:17;;;;;;;13.90;8.25;;;11.80;75.20;;;;;;5036177;28;20351;-87
2022/04/19 06:30:43;;;;;;;11.50;7.60;;;11.80;75.10;;;;;;5036100;28;20049;-88
2022/04/19 06:33:09;;;;;;;11.75;7.55;;;11.80;74.70;;;;;;5036686;28;20056;-88
2022/04/19 06:35:47;;;;;;;11.32;7.75;;;11.90;74.70;;;;;;5037338;28;20369;-87
2022/04/19 06:38:12;;;;;;;11.90;7.93;;;11.90;74.40;;;;;;5020968;28;20107;-88
2022/04/19 06:40:38;;;;;;;12.43;7.95;;;12.00;74.10;;;;;;5036546;28;20362;-87
2022/04/19 06:43:04;;;;;;;11.13;7.43;;;12.00;73.90;;;;;;5035889;28;20021;-87
2022/04/19 06:45:30;;;;;;;12.90;7.18;;;12.10;73.70;;;;;;5036574;28;20060;-87
2022/04/19 06:48:12;;;;;;;11.40;7.93;;;12.10;73.70;;;;;;5037951;28;20472;-87
2022/04/19 06:50:39;;;;;;;14.38;8.18;;;12.20;73.20;;;;;;5038261;28;20033;-88
2022/04/19 06:53:04;;;;;;;12.15;7.72;;;12.30;72.90;;;;;;5044030;28;20041;-87
2022/04/19 06:55:31;;;;;;;12.05;7.57;;;12.30;73.10;;;;;;5026160;28;20026;-88
2022/04/19 06:57:57;;;;;;;13.02;7.93;;;12.40;73.30;;;;;;5022454;28;20078;-87
2022/04/19 07:00:23;;;;;;;12.18;8.20;;;12.40;73.60;;;;;;5018497;28;20042;-86
2022/04/19 07:02:49;;;;;;;12.77;8.07;;;12.50;73.90;;;;;;5043038;28;20113;-88
2022/04/19 07:05:17;;;;;;;14.68;7.57;;;12.60;73.70;;;;;;5031234;28;20395;-87
2022/04/19 07:07:46;;;;;;;12.55;7.85;;;12.60;73.90;;;;;;5006029;28;20068;-88
2022/04/19 07:10:12;;;;;;;11.05;7.07;;;12.70;74.20;;;;;;5023169;28;20382;-88
2022/04/19 07:12:39;;;;;;;11.05;7.70;;;12.80;74.20;;;;;;5010399;28;20021;-86
2022/04/19 07:15:07;;;;;;;11.20;7.78;;;12.90;74.50;;;;;;5016882;28;20054;-86
2022/04/19 07:17:37;;;;;;;13.07;8.15;;;13.00;73.90;;;;;;5016599;28;20014;-86
2022/04/19 07:28:21;;;;;;;11.48;7.38;;;13.30;73.90;;;;;;5002651;28;20034;-86
2022/04/19 07:30:47;;;;;;;11.02;7.80;;;13.40;74.20;;;;;;5000258;28;20373;-88
2022/04/19 07:33:13;;;;;;;10.50;7.10;;;13.40;74.40;;;;;;4999198;28;20021;-86
2022/04/19 07:35:41;;;;;;;12.73;7.88;;;13.60;74.30;;;;;;5016004;28;20026;-86
2022/04/19 07:38:06;;;;;;;11.70;8.15;;;13.70;73.50;;;;;;5012686;28;20037;-86
2022/04/19 07:40:33;;;;;;;13.13;7.85;;;13.70;73.10;;;;;;5035660;28;20072;-84
2022/04/19 07:42:59;;;;;;;12.85;8.48;;;13.80;73.30;;;;;;5034922;28;20056;-85
2022/04/19 07:45:30;;;;;;;10.57;7.25;;;13.90;73.70;;;;;;5035316;28;20025;-86
2022/04/19 07:47:56;;;;;;;11.38;7.45;;;14.00;73.80;;;;;;5034698;28;20123;-86
2022/04/19 07:50:25;;;;;;;12.18;8.07;;;14.10;73.30;;;;;;5034831;28;20024;-85
2022/04/19 07:52:51;;;;;;;13.07;8.15;;;14.20;72.50;;;;;;5035104;28;20018;-85
2022/04/19 07:55:16;;;;;;;10.45;6.97;;;14.30;72.40;;;;;;5033328;28;20020;-86
2022/04/19 07:57:45;;;;;;;11.52;7.95;;;14.40;71.20;;;;;;5034232;28;20030;-85
2022/04/19 08:00:11;;;;;;;10.70;7.18;;;14.50;71.40;;;;;;5035088;28;20045;-85
2022/04/19 08:02:37;;;;;;;10.75;7.03;;;14.60;71.00;;;;;;5037709;28;20026;-86
2022/04/19 08:05:05;;;;;;;10.65;7.20;;;14.70;70.60;;;;;;5039402;28;20089;-85
2022/04/19 08:07:33;;;;;;;10.85;7.03;;;14.80;71.20;;;;;;5025001;28;20022;-85
2022/04/19 08:10:01;;;;;;;13.18;7.57;;;14.90;71.80;;;;;;5020143;28;20029;-85
2022/04/19 08:12:35;;;;;;;9.52;6.28;;;15.00;72.00;;;;;;5020463;28;20022;-82
2022/04/19 08:15:00;;;;;;;13.32;7.40;;;15.10;72.10;;;;;;5018696;28;20056;-82
2022/04/19 08:17:26;;;;;;;13.20;7.75;;;15.20;71.60;;;;;;4999604;28;20103;-82
2022/04/19 08:19:55;;;;;;;10.93;7.28;;;15.30;70.90;;;;;;5006906;28;20025;-81
2022/04/19 08:22:21;;;;;;;10.55;6.80;;;15.40;70.20;;;;;;5022712;28;20032;-82
2022/04/19 08:24:47;;;;;;;12.00;7.35;;;15.50;69.40;;;;;;4981761;28;20030;-82
2022/04/19 08:27:17;;;;;;;10.00;6.63;;;15.60;68.00;;;;;;5013191;28;20018;-82
2022/04/19 08:29:47;;;;;;;9.53;6.03;;;15.70;66.90;;;;;;5013550;28;20137;-82
2022/04/19 08:32:15;;;;;;;13.18;6.85;;;15.80;67.20;;;;;;5020151;28;20214;-83
2022/04/19 08:34:45;;;;;;;9.60;6.03;;;15.90;67.10;;;;;;5026768;28;20025;-82
2022/04/19 08:37:11;;;;;;;9.65;5.93;;;16.00;67.10;;;;;;5022693;28;20063;-83
2022/04/19 08:39:37;;;;;;;12.25;6.43;;;16.00;66.80;;;;;;5022845;28;20026;-84
2022/04/19 08:42:05;;;;;;;11.05;7.03;;;16.10;66.60;;;;;;5012592;28;20081;-83
2022/04/19 08:44:36;;;;;;;10.07;6.47;;;16.20;65.90;;;;;;5021148;28;20052;-83
2022/04/19 08:47:06;;;;;;;9.77;6.40;;;16.30;65.80;;;;;;5015140;28;20108;-83
2022/04/19 08:49:39;;;;;;;10.35;6.35;;;16.40;66.80;;;;;;5020744;28;20406;-82
2022/04/19 08:52:05;;;;;;;10.48;6.40;;;16.50;64.90;;;;;;5020278;28;20034;-82
2022/04/19 08:57:34;;;;;;;10.52;5.97;;;16.70;63.90;;;;;;5016122;28;20084;-82
2022/04/19 09:00:01;;;;;;;11.88;6.40;;;16.80;64.50;;;;;;5015108;28;20054;-83
2022/04/19 09:02:29;;;;;;;10.02;5.82;;;16.90;64.60;;;;;;5015897;28;20038;-82
2022/04/19 09:05:19;;;;;;;11.18;6.32;;;17.00;64.40;;;;;;5013728;28;20026;-82
2022/04/19 09:07:46;;;;;;;13.98;6.60;;;17.10;63.40;;;;;;5011059;28;20049;-82
2022/04/19 09:10:16;;;;;;;9.63;6.00;;;17.20;63.10;;;;;;4980227;28;20034;-82
2022/04/19 09:13:01;;;;;;;11.40;6.43;;;17.30;62.90;;;;;;5012302;28;20116;-82
2022/04/19 09:15:43;;;;;;;11.65;6.18;;;17.40;62.70;;;;;;5012301;28;20040;-82
2022/04/19 09:18:30;;;;;;;9.48;5.90;;;17.50;63.10;;;;;;4994924;28;20642;-82
2022/04/19 09:21:05;;;;;;;11.20;6.13;;;17.50;63.20;;;;;;5013599;28;20026;-81
2022/04/19 09:23:32;;;;;;;9.95;5.38;;;17.60;62.50;;;;;;5012426;28;20026;-81
2022/04/19 09:26:05;;;;;;;8.85;5.20;;;17.70;62.30;;;;;;5012808;28;20044;-81
2022/04/19 09:28:33;;;;;;;9.20;5.50;;;17.80;62.00;;;;;;5013685;28;20113;-82
2022/04/19 09:31:00;;;;;;;9.32;4.95;;;17.90;62.10;;;;;;5012571;28;20466;-81
2022/04/19 09:33:28;;;;;;;8.85;5.07;;;17.90;62.40;;;;;;4995992;28;20034;-81
2022/04/19 09:35:56;;;;;;;9.35;5.40;;;18.00;62.60;;;;;;5012435;28;20033;-81
2022/04/19 09:38:46;;;;;;;8.35;4.43;;;18.20;62.80;;;;;;5013132;28;20495;-82
2022/04/19 09:41:28;;;;;;;7.53;4.25;;;18.20;62.50;;;;;;5012274;28;20042;-81
2022/04/19 09:44:13;;;;;;;8.35;4.80;;;18.40;61.80;;;;;;5012688;28;20037;-81
2022/04/19 09:46:39;;;;;;;8.40;4.70;;;18.40;61.50;;;;;;5013341;28;20022;-81
2022/04/19 09:49:06;;;;;;;7.25;4.60;;;18.50;61.20;;;;;;4996319;28;20033;-82
2022/04/19 09:51:36;;;;;;;7.55;4.25;;;18.60;61.20;;;;;;5011987;28;20038;-81
2022/04/19 09:54:06;;;;;;;8.13;4.90;;;18.70;60.70;;;;;;5012451;28;20034;-83
2022/04/19 09:56:37;;;;;;;7.05;4.25;;;18.70;61.00;;;;;;4995786;28;20469;-82
2022/04/19 09:59:03;;;;;;;;;;;18.80;60.80;;;;;;4996538;28;20077;-83
2022/04/19 10:09:38;;;;;;;8.95;5.45;;;19.10;59.30;;;;;;5012229;28;20494;-81
2022/04/19 10:12:06;;;;;;;9.77;5.70;;;19.20;58.80;;;;;;4996179;28;20045;-81
2022/04/19 10:14:33;;;;;;;8.82;4.78;;;19.30;58.50;;;;;;5013459;28;20041;-83
2022/04/19 10:16:59;;;;;;;9.85;5.22;;;19.30;58.70;;;;;;5012057;28;20117;-82
2022/04/19 10:19:27;;;;;;;8.98;4.95;;;19.40;57.80;;;;;;5013376;28;20033;-81
2022/04/19 10:21:54;;;;;;;10.77;5.63;;;19.50;57.40;;;;;;5015726;28;20183;-81
2022/04/19 10:24:20;;;;;;;8.40;5.53;;;19.60;57.10;;;;;;4999671;28;20030;-83
2022/04/19 10:26:53;;;;;;;9.75;5.10;;;19.60;56.60;;;;;;5015571;28;20049;-82
2022/04/19 10:29:22;;;;;;;8.23;4.95;;;19.70;56.20;;;;;;5016124;28;20112;-82
2022/04/19 10:32:02;;;;;;;9.20;5.40;;;19.70;55.90;;;;;;5018842;28;20028;-82
2022/04/19 10:34:33;;;;;;;8.20;4.75;;;19.80;55.80;;;;;;5031682;28;20084;-82
2022/04/19 10:37:19;;;;;;;10.15;5.50;;;19.80;55.80;;;;;;5031737;28;20018;-82
2022/04/19 10:39:47;;;;;;;8.27;4.95;;;19.90;55.60;;;;;;5019307;28;20030;-81
2022/04/19 10:42:29;;;;;;;10.82;5.45;;;19.90;55.30;;;;;;5019790;28;20029;-81
2022/04/19 10:44:55;;;;;;;9.70;5.72;;;20.00;55.30;;;;;;5031540;28;20018;-86
2022/04/19 10:47:28;;;;;;;8.98;4.80;;;20.10;55.00;;;;;;5022373;28;20033;-86
2022/04/19 10:50:07;;;;;;;10.70;5.32;;;20.10;55.00;;;;;;5018382;28;20065;-82
2022/04/19 10:52:44;;;;;;;8.95;5.20;;;20.20;54.90;;;;;;5015480;28;20031;-83
2022/04/19 10:55:26;;;;;;;8.23;4.82;;;20.30;55.00;;;;;;5015484;28;20117;-83
2022/04/19 10:58:13;;;;;;;8.60;4.80;;;20.30;53.80;;;;;;5014991;28;20045;-82
2022/04/19 11:00:42;;;;;;;7.57;4.80;;;20.40;52.70;;;;;;5016386;28;20072;-84
2022/04/19 11:03:17;;;;;;;9.85;4.90;;;20.50;52.60;;;;;;5015362;28;20030;-85
2022/04/19 11:06:00;;;;;;;8.57;4.63;;;20.50;53.20;;;;;;5031128;28;20422;-83
2022/04/19 11:08:37;;;;;;;8.73;4.72;;;20.50;52.10;;;;;;5036072;28;20059;-93
2022/04/19 11:11:03;;;;;;;8.00;4.88;;;20.60;50.90;;;;;;5037495;28;20478;-93
2022/04/19 11:13:31;;;;;;;9.85;5.10;;;20.60;51.30;;;;;;5038567;28;20084;-94
2022/04/19 11:16:35;;;;;;;7.88;4.40;;;20.70;51.40;;;;;;5021904;28;20030;-93
2022/04/19 11:19:36;;;;;;;7.85;4.45;;;20.70;50.80;;;;;;5037290;28;20056;-94
2022/04/19 11:25:24;;;;;;;9.57;4.88;;;20.80;50.90;;;;;;5036282;28;20038;-95
2022/04/19 11:28:01;;;;;;;8.13;4.63;;;20.90;50.40;;;;;;5019706;28;20049;-95
2022/04/19 11:30:47;;;;;;;11.68;5.72;;;21.00;50.50;;;;;;5057775;28;20077;-91
2022/04/19 11:33:34;;;;;;;8.93;5.22;;;21.00;49.70;;;;;;5038683;28;20034;-85
2022/04/19 11:36:04;;;;;;;9.90;4.63;;;21.10;49.80;;;;;;5038719;28;20025;-89
2022/04/19 11:46:43;;;;;;;8.02;4.70;;;21.10;49.80;;;;;;5034484;28;20033;-89
2022/04/19 11:48:44;;;;;;;11.15;5.03;;;21.40;50.20;;;;;;5024324;28;20073;-91
2022/04/19 11:51:35;;;;;;;;;;;;;;;;;;;;;
2022/04/19 11:54:05;;;;;;;7.50;4.65;;;21.50;49.20;;;;;;5024385;28;20373;-84
2022/04/19 11:56:32;;;;;;;9.20;5.30;;;21.50;49.50;;;;;;5018280;28;20037;-85
2022/04/19 11:59:00;;;;;;;10.15;5.78;;;21.60;49.60;;;;;;5020830;28;20133;-84
2022/04/19 12:01:28;;;;;;;12.73;5.30;;;21.60;49.70;;;;;;5018193;28;20036;-86
2022/04/19 12:03:54;;;;;;;7.95;4.63;;;21.60;49.40;;;;;;5019866;28;20026;-85
2022/04/19 12:06:21;;;;;;;8.60;4.95;;;21.70;49.70;;;;;;5015335;28;20036;-84
2022/04/19 12:08:51;;;;;;;10.23;5.25;;;21.80;50.10;;;;;;5013975;28;20056;-85
2022/04/19 12:11:30;;;;;;;8.10;4.55;;;21.80;49.90;;;;;;5013768;28;20049;-87
2022/04/19 12:13:57;;;;;;;6.32;3.70;;;21.90;49.30;;;;;;5014110;28;20456;-86
2022/04/19 12:16:36;;;;;;;7.53;4.55;;;22.00;48.10;;;;;;5022183;28;20025;-87
2022/04/19 12:19:26;;;;;;;5.75;3.65;;;22.00;47.70;;;;;;5015249;28;20022;-86
2022/04/19 12:21:54;;;;;;;5.88;4.03;;;22.00;48.10;;;;;;5015172;28;20037;-88
2022/04/19 12:24:24;;;;;;;6.63;4.20;;;22.00;48.40;;;;;;5019253;28;20042;-86
2022/04/19 12:27:10;;;;;;;6.47;4.35;;;22.10;48.50;;;;;;5020702;28;20100;-86
2022/04/19 12:29:53;;;;;;;7.22;4.65;;;22.20;48.80;;;;;;5013320;28;20030;-85
2022/04/19 12:32:19;;;;;;;6.95;4.50;;;22.20;48.90;;;;;;5014318;28;20040;-85
2022/04/19 12:34:47;;;;;;;7.55;4.55;;;22.20;48.80;;;;;;4998061;28;20042;-86
2022/04/19 12:37:17;;;;;;;5.97;3.88;;;22.30;49.50;;;;;;5013797;28;20018;-85
2022/04/19 12:40:02;;;;;;;5.82;3.38;;;22.40;49.00;;;;;;5013864;28;20018;-85
2022/04/19 12:42:48;;;;;;;6.03;3.55;;;22.40;48.20;;;;;;5013303;28;20033;-86
2022/04/19 12:45:17;;;;;;;5.47;3.10;;;22.40;47.70;;;;;;5013794;28;20109;-86
2022/04/19 12:47:50;;;;;;;7.28;4.00;;;22.50;48.10;;;;;;4997047;28;20030;-87
2022/04/19 12:50:22;;;;;;;4.93;3.35;;;22.50;46.90;;;;;;5013525;28;20026;-86
2022/04/19 12:52:53;;;;;;;5.43;3.42;;;22.50;47.20;;;;;;4997814;28;20037;-86
2022/04/19 12:55:28;;;;;;;5.40;3.10;;;22.60;47.90;;;;;;4997536;28;20119;-86
2022/04/19 12:58:10;;;;;;;4.85;3.00;;;22.60;48.00;;;;;;5018714;28;20037;-86
2022/04/19 13:00:37;;;;;;;3.67;2.70;;;22.70;48.20;;;;;;5017837;28;20085;-86
2022/04/19 13:03:04;;;;;;;5.40;2.80;;;22.80;47.10;;;;;;5016519;28;20053;-87
2022/04/19 13:13:47;;;;;;;3.95;2.60;;;23.00;47.20;;;;;;5017267;28;20075;-85
2022/04/19 13:16:13;;;;;;;3.70;2.65;;;23.00;46.70;;;;;;5021931;28;20041;-85
2022/04/19 13:18:41;;;;;;;3.55;2.33;;;23.00;46.80;;;;;;5020957;28;20026;-86
2022/04/19 13:21:09;;;;;;;5.78;2.10;;;23.10;46.50;;;;;;5027128;28;20030;-87
2022/04/19 13:23:37;;;;;;;3.25;2.08;;;23.10;46.20;;;;;;5023952;28;20084;-85
2022/04/19 13:26:03;;;;;;;5.60;2.30;;;23.10;46.00;;;;;;5019440;28;20021;-86
2022/04/19 13:28:29;;;;;;;4.57;2.72;;;23.20;46.40;;;;;;5017546;28;20018;-87
2022/04/19 13:30:58;;;;;;;3.13;2.10;;;23.20;46.80;;;;;;5012191;28;20114;-85
2022/04/19 13:33:31;;;;;;;6.05;2.80;;;23.30;47.00;;;;;;4995437;28;20080;-86
2022/04/19 13:35:57;;;;;;;4.90;3.10;;;23.30;47.10;;;;;;4997014;28;20471;-85
2022/04/19 13:38:25;;;;;;;2.83;2.33;;;23.40;47.00;;;;;;5012977;28;20118;-85
2022/04/19 13:41:03;;;;;;;6.05;2.72;;;23.40;46.60;;;;;;5014345;28;20033;-86
2022/04/19 13:43:29;;;;;;;7.20;2.95;;;23.40;46.40;;;;;;4997757;28;20029;-85